createdAt,value
2022-10-05T00:02:24.462Z,59.31
2022-10-05T00:04:57.427Z,59.49
2022-10-05T00:07:25.194Z,59.25
2022-10-05T00:09:59.603Z,59.97
2022-10-05T00:12:30.162Z,59.87
2022-10-05T00:15:00.725Z,59.31
2022-10-05T00:17:30.725Z,60.18
2022-10-05T00:19:57.742Z,59.69
2022-10-05T00:22:30.402Z,59.87
2022-10-05T00:25:01.145Z,60.26
2022-10-05T00:27:37.707Z,59.72
2022-10-05T00:30:16.130Z,59.79
2022-10-05T00:32:44.153Z,59.41
2022-10-05T00:35:12.778Z,59.66
2022-10-05T00:37:40.211Z,59.11
2022-10-05T00:40:16.371Z,58.96
2022-10-05T00:43:09.603Z,60.29
2022-10-05T00:45:44.070Z,59.83
2022-10-05T00:48:55.684Z,60.23
2022-10-05T00:51:36.083Z,59.95
2022-10-05T00:54:21.522Z,59.93
2022-10-05T00:57:00.743Z,59.49
2022-10-05T00:59:58.302Z,60.08
2022-10-05T01:02:46.822Z,59.62
2022-10-05T01:05:35.344Z,59.46
2022-10-05T01:08:34.346Z,59.30
2022-10-05T01:11:10.186Z,59.47
2022-10-05T01:13:46.262Z,59.75
2022-10-05T01:16:59.143Z,60.06
2022-10-05T01:19:40.363Z,60.05
2022-10-05T01:22:39.722Z,60.97
2022-10-05T01:25:13.002Z,60.46
2022-10-05T01:27:53.667Z,59.92
2022-10-05T01:30:22.302Z,60.09
2022-10-05T01:33:18.362Z,59.91
2022-10-05T01:35:57.472Z,60.25
2022-10-05T01:38:27.582Z,60.15
2022-10-05T01:41:09.702Z,60.00
2022-10-05T01:43:46.209Z,59.94
2022-10-05T01:46:36.182Z,60.36
2022-10-05T01:49:24.882Z,60.09
2022-10-05T01:52:00.902Z,60.13
2022-10-05T01:54:52.362Z,60.34
2022-10-05T01:57:31.792Z,60.09
2022-10-05T02:00:10.902Z,60.07
2022-10-05T02:02:45.123Z,60.05
2022-10-05T02:05:35.462Z,60.11
2022-10-05T02:08:19.062Z,59.92
2022-10-05T02:10:59.931Z,60.11
2022-10-05T02:13:38.643Z,60.04
2022-10-05T02:16:14.681Z,59.87
2022-10-05T02:18:54.369Z,59.97
2022-10-05T02:21:22.242Z,60.39
2022-10-05T02:23:54.647Z,60.27
2022-10-05T02:26:22.762Z,60.06
2022-10-05T02:28:58.283Z,60.27
2022-10-05T02:32:00.748Z,60.36
2022-10-05T02:34:38.222Z,60.17
2022-10-05T02:37:34.644Z,60.01
2022-10-05T02:40:39.741Z,60.43
2022-10-05T02:43:12.808Z,60.42
2022-10-05T02:46:19.582Z,60.09
2022-10-05T02:48:57.783Z,60.54
2022-10-05T02:51:34.081Z,60.23
2022-10-05T02:54:22.021Z,60.54
2022-10-05T02:57:01.484Z,60.46
2022-10-05T02:59:31.462Z,60.44
2022-10-05T03:02:16.854Z,60.18
2022-10-05T03:05:09.190Z,60.42
2022-10-05T03:07:56.774Z,60.28
2022-10-05T03:10:29.470Z,60.46
2022-10-05T03:13:18.210Z,60.30
2022-10-05T03:16:11.616Z,60.42
2022-10-05T03:18:53.623Z,60.30
2022-10-05T03:21:33.783Z,60.39
2022-10-05T03:24:20.143Z,60.86
2022-10-05T03:27:01.947Z,61.02
2022-10-05T03:29:58.063Z,60.90
2022-10-05T03:32:42.563Z,60.79
2022-10-05T03:35:23.211Z,60.73
2022-10-05T03:38:09.332Z,60.91
2022-10-05T03:40:51.123Z,61.02
2022-10-05T03:43:34.622Z,60.92
2022-10-05T03:46:13.640Z,61.07
2022-10-05T03:48:48.384Z,61.18
2022-10-05T03:51:31.544Z,61.27
2022-10-05T03:54:27.382Z,61.16
2022-10-05T03:57:00.931Z,61.38
2022-10-05T03:59:40.602Z,61.07
2022-10-05T04:02:20.215Z,61.38
2022-10-05T04:05:09.862Z,61.26
2022-10-05T04:07:55.062Z,61.49
2022-10-05T04:10:28.042Z,61.60
2022-10-05T04:13:31.563Z,62.17
2022-10-05T04:16:28.425Z,61.84
2022-10-05T04:19:19.462Z,61.14
2022-10-05T04:22:13.075Z,60.54
2022-10-05T04:24:44.856Z,60.85
2022-10-05T04:27:18.162Z,60.70
2022-10-05T04:30:00.687Z,60.94
2022-10-05T04:32:36.577Z,60.83
2022-10-05T04:35:15.856Z,60.77
2022-10-05T04:38:17.911Z,60.93
2022-10-05T04:41:27.729Z,61.24
2022-10-05T04:44:01.321Z,61.56
2022-10-05T04:46:49.057Z,61.33
2022-10-05T04:49:38.669Z,61.80
2022-10-05T04:52:23.612Z,62.15
2022-10-05T04:55:13.678Z,62.15
2022-10-05T04:57:46.730Z,62.98
2022-10-05T05:00:32.367Z,63.38
2022-10-05T05:03:34.915Z,62.73
2022-10-05T05:06:30.578Z,62.28
2022-10-05T05:09:18.528Z,62.39
2022-10-05T05:12:04.239Z,62.23
2022-10-05T05:15:22.870Z,62.01
2022-10-05T05:18:06.870Z,61.88
2022-10-05T05:20:48.750Z,62.11
2022-10-05T05:23:36.030Z,62.08
2022-10-05T05:26:09.654Z,62.37
2022-10-05T05:28:50.369Z,62.58
2022-10-05T05:31:48.455Z,62.87
2022-10-05T05:34:27.908Z,62.35
2022-10-05T05:37:08.569Z,62.55
2022-10-05T05:39:49.390Z,62.73
2022-10-05T05:42:17.909Z,62.67
2022-10-05T05:44:52.680Z,62.38
2022-10-05T05:47:25.420Z,62.51
2022-10-05T05:50:07.298Z,62.37
2022-10-05T05:52:47.328Z,61.68
2022-10-05T05:55:30.538Z,61.19
2022-10-05T05:58:49.308Z,60.64
2022-10-05T06:01:47.892Z,61.58
2022-10-05T06:04:19.890Z,61.70
2022-10-05T06:06:51.508Z,61.38
2022-10-05T06:09:21.492Z,61.15
2022-10-05T06:12:09.569Z,60.98
2022-10-05T06:14:56.728Z,61.30
2022-10-05T06:17:42.669Z,60.83
2022-10-05T06:20:22.379Z,61.05
2022-10-05T06:22:51.628Z,60.78
2022-10-05T06:25:31.690Z,60.78
2022-10-05T06:28:11.296Z,61.27
2022-10-05T06:31:07.123Z,61.21
2022-10-05T06:33:59.896Z,60.67
2022-10-05T06:36:53.051Z,60.32
2022-10-05T06:39:35.719Z,60.31
2022-10-05T06:42:23.516Z,60.06
2022-10-05T06:45:41.882Z,59.80
2022-10-05T06:48:45.760Z,59.71
2022-10-05T06:51:47.630Z,59.57
2022-10-05T06:54:36.598Z,58.49
2022-10-05T06:57:03.808Z,58.49
2022-10-05T06:59:42.789Z,58.62
2022-10-05T07:02:47.459Z,58.79
2022-10-05T07:05:52.609Z,58.81
2022-10-05T07:08:26.765Z,59.04
2022-10-05T07:11:18.989Z,59.09
2022-10-05T07:14:03.252Z,58.56
2022-10-05T07:16:52.339Z,58.81
2022-10-05T07:19:19.350Z,58.30
2022-10-05T07:22:15.377Z,58.26
2022-10-05T07:25:03.629Z,58.01
2022-10-05T07:27:40.936Z,57.75
2022-10-05T07:30:14.448Z,57.78
2022-10-05T07:33:05.490Z,57.38
2022-10-05T07:36:01.510Z,56.91
2022-10-05T07:38:39.128Z,56.61
2022-10-05T07:41:08.417Z,55.94
2022-10-05T07:44:03.328Z,55.55
2022-10-05T07:46:59.408Z,55.65
2022-10-05T07:49:52.427Z,55.57
2022-10-05T07:52:38.251Z,55.11
2022-10-05T07:55:23.498Z,54.72
2022-10-05T07:58:09.679Z,54.69
2022-10-05T08:01:00.011Z,54.10
2022-10-05T08:03:56.640Z,53.90
2022-10-05T08:06:49.709Z,52.87
2022-10-05T08:09:23.379Z,53.59
2022-10-05T08:11:55.869Z,53.18
2022-10-05T08:14:22.798Z,52.57
2022-10-05T08:16:55.679Z,52.62
2022-10-05T08:19:26.079Z,52.82
2022-10-05T08:22:00.650Z,52.19
2022-10-05T08:25:01.428Z,51.76
2022-10-05T08:27:47.111Z,51.90
2022-10-05T08:30:16.777Z,51.99
2022-10-05T08:33:12.189Z,51.89
2022-10-05T08:35:44.060Z,52.00
2022-10-05T08:38:17.428Z,51.71
2022-10-05T08:40:47.230Z,51.53
2022-10-05T08:43:16.716Z,51.83
2022-10-05T08:46:32.608Z,52.01
2022-10-05T08:49:35.353Z,51.81
2022-10-05T08:52:21.148Z,51.07
2022-10-05T08:55:22.676Z,50.35
2022-10-05T08:58:04.458Z,49.96
2022-10-05T09:00:53.372Z,50.44
2022-10-05T09:03:41.548Z,49.56
2022-10-05T09:06:33.759Z,48.96
2022-10-05T09:09:09.888Z,48.36
2022-10-05T09:11:39.189Z,48.39
2022-10-05T09:14:29.553Z,48.12
2022-10-05T09:17:10.718Z,46.98
2022-10-05T09:20:11.242Z,46.84
2022-10-05T09:23:04.956Z,46.22
2022-10-05T09:25:57.449Z,45.97
2022-10-05T09:28:45.992Z,44.38
2022-10-05T09:31:49.156Z,44.49
2022-10-05T09:34:28.288Z,44.25
2022-10-05T09:37:07.690Z,44.47
2022-10-05T09:39:34.617Z,43.05
2022-10-05T09:42:07.535Z,43.00
2022-10-05T09:44:52.809Z,43.35
2022-10-05T09:48:01.137Z,43.56
2022-10-05T09:50:53.119Z,44.05
2022-10-05T09:54:10.897Z,43.38
2022-10-05T09:57:04.388Z,42.77
2022-10-05T09:59:49.709Z,41.60
2022-10-05T10:03:08.452Z,41.21
2022-10-05T10:06:03.506Z,41.10
2022-10-05T10:08:49.237Z,40.94
2022-10-05T10:11:31.332Z,41.70
2022-10-05T10:14:17.630Z,42.19
2022-10-05T10:17:26.900Z,40.95
2022-10-05T10:20:00.048Z,41.12
2022-10-05T10:22:39.598Z,39.87
2022-10-05T10:25:47.039Z,39.30
2022-10-05T10:28:14.035Z,38.49
2022-10-05T10:30:47.132Z,38.53
2022-10-05T10:33:28.890Z,37.90
2022-10-05T10:36:13.349Z,38.29
2022-10-05T10:38:53.434Z,38.06
2022-10-05T10:41:34.273Z,38.29
2022-10-05T10:44:29.949Z,38.04
2022-10-05T10:47:39.668Z,36.69
2022-10-05T10:50:28.506Z,36.52
2022-10-05T10:53:22.950Z,37.16
2022-10-05T10:56:00.688Z,36.22
2022-10-05T10:59:01.940Z,36.24
2022-10-05T11:13:43.051Z,37.17
2022-10-05T11:16:15.875Z,37.32
2022-10-05T11:19:20.613Z,36.42
2022-10-05T11:22:02.750Z,36.42
2022-10-05T11:24:34.919Z,35.73
2022-10-05T11:27:08.501Z,35.57
2022-10-05T11:29:41.608Z,35.75
2022-10-05T11:32:27.999Z,35.30
2022-10-05T11:35:00.829Z,35.41
2022-10-05T11:38:19.609Z,35.52
2022-10-05T11:41:19.089Z,35.24
2022-10-05T11:44:19.929Z,35.51
2022-10-05T11:46:49.886Z,35.50
2022-10-05T11:49:48.810Z,35.94
2022-10-05T11:52:34.690Z,35.71
2022-10-05T11:55:24.789Z,36.28
2022-10-05T11:57:58.713Z,36.02
2022-10-05T12:00:32.687Z,36.54
2022-10-05T12:03:24.978Z,36.92
2022-10-05T12:06:07.168Z,36.91
2022-10-05T12:08:39.870Z,36.59
2022-10-05T12:11:27.777Z,36.87
2022-10-05T12:14:01.488Z,36.18
2022-10-05T12:16:28.459Z,36.34
2022-10-05T12:19:16.670Z,36.28
2022-10-05T12:22:00.199Z,36.87
2022-10-05T12:24:29.821Z,36.84
2022-10-05T12:27:07.711Z,36.76
2022-10-05T12:29:34.543Z,36.68
2022-10-05T12:32:07.935Z,37.34
2022-10-05T12:35:13.487Z,36.76
2022-10-05T12:38:10.459Z,36.25
2022-10-05T12:40:51.849Z,36.69
2022-10-05T12:43:41.848Z,35.88
2022-10-05T12:46:43.299Z,36.60
2022-10-05T12:49:34.979Z,36.18
2022-10-05T12:52:06.117Z,36.55
2022-10-05T12:54:49.661Z,36.58
2022-10-05T12:57:32.190Z,37.05
2022-10-05T13:00:22.733Z,36.96
2022-10-05T13:02:58.001Z,37.33
2022-10-05T13:05:30.650Z,37.36
2022-10-05T13:08:18.171Z,37.26
2022-10-05T13:10:45.131Z,37.97
2022-10-05T13:13:26.369Z,38.09
2022-10-05T13:16:00.849Z,37.97
2022-10-05T13:18:27.809Z,37.63
2022-10-05T13:21:07.088Z,37.88
2022-10-05T13:23:39.968Z,38.01
2022-10-05T13:26:25.091Z,37.72
2022-10-05T13:29:18.308Z,37.82
2022-10-05T13:31:51.186Z,37.90
2022-10-05T13:34:46.903Z,37.67
2022-10-05T13:37:35.671Z,37.79
2022-10-05T13:40:24.330Z,37.14
2022-10-05T13:43:04.249Z,36.48
2022-10-05T13:45:51.244Z,36.11
2022-10-05T13:49:15.599Z,35.29
2022-10-05T13:52:23.689Z,34.28
2022-10-05T13:55:00.071Z,33.52
2022-10-05T13:57:36.369Z,33.23
2022-10-05T14:00:14.712Z,33.95
2022-10-05T14:02:45.119Z,34.45
2022-10-05T14:05:22.157Z,34.66
2022-10-05T14:07:56.848Z,35.08
2022-10-05T14:10:47.890Z,36.34
2022-10-05T14:13:20.768Z,36.40
2022-10-05T14:16:04.886Z,37.10
2022-10-05T14:18:36.443Z,37.02
2022-10-05T14:21:19.258Z,37.76
2022-10-05T14:23:46.289Z,38.24
2022-10-05T14:26:23.540Z,38.95
2022-10-05T14:29:00.836Z,39.18
2022-10-05T14:31:35.748Z,39.11
2022-10-05T14:34:29.231Z,39.38
2022-10-05T14:37:21.039Z,39.93
2022-10-05T14:39:50.616Z,40.75
2022-10-05T14:42:21.329Z,41.84
2022-10-05T14:45:13.530Z,41.69
2022-10-05T14:48:06.310Z,42.29
2022-10-05T14:50:33.488Z,42.68
2022-10-05T14:53:03.208Z,43.45
2022-10-05T14:55:40.229Z,42.76
2022-10-05T14:58:26.030Z,42.79
2022-10-05T15:01:11.395Z,42.95
2022-10-05T15:03:58.809Z,43.61
2022-10-05T15:06:33.329Z,43.11
2022-10-05T15:09:17.303Z,42.97
2022-10-05T15:11:55.229Z,42.77
2022-10-05T15:14:34.231Z,43.00
2022-10-05T15:17:31.229Z,43.20
2022-10-05T15:20:24.682Z,43.27
2022-10-05T15:23:23.957Z,43.53
2022-10-05T15:26:10.829Z,44.18
2022-10-05T15:28:56.748Z,43.80
2022-10-05T15:31:42.468Z,43.38
2022-10-05T15:34:41.988Z,44.86
2022-10-05T15:37:24.590Z,44.55
2022-10-05T15:40:05.178Z,44.92
2022-10-05T15:42:38.466Z,45.18
2022-10-05T15:45:19.778Z,45.31
2022-10-05T15:47:53.077Z,45.91
2022-10-05T15:50:26.552Z,46.46
2022-10-05T15:53:23.328Z,47.35
2022-10-05T15:56:03.670Z,48.00
2022-10-05T15:58:52.790Z,48.21
2022-10-05T16:01:29.544Z,48.44
2022-10-05T16:04:17.729Z,48.94
2022-10-05T16:07:17.309Z,49.25
2022-10-05T16:09:56.946Z,49.74
2022-10-05T16:12:35.259Z,49.54
2022-10-05T16:15:26.780Z,49.73
2022-10-05T16:18:09.448Z,50.10
2022-10-05T16:21:00.151Z,50.49
2022-10-05T16:24:06.470Z,50.97
2022-10-05T16:26:50.289Z,51.17
2022-10-05T16:29:54.369Z,51.77
2022-10-05T16:32:31.189Z,51.89
2022-10-05T16:35:21.090Z,52.16
2022-10-05T16:38:06.348Z,52.89
2022-10-05T16:41:12.926Z,52.91
2022-10-05T16:43:40.131Z,53.21
2022-10-05T16:46:41.325Z,53.02
2022-10-05T16:49:31.761Z,53.17
2022-10-05T16:52:06.811Z,53.44
2022-10-05T16:54:49.148Z,53.40
2022-10-05T16:57:28.209Z,53.92
2022-10-05T17:00:28.811Z,54.24
2022-10-05T17:03:21.818Z,54.48
2022-10-05T17:06:19.390Z,54.95
2022-10-05T17:09:08.009Z,54.83
2022-10-05T17:11:43.989Z,54.82
2022-10-05T17:14:31.038Z,55.19
2022-10-05T17:17:17.429Z,54.88
2022-10-05T17:20:07.237Z,55.31
2022-10-05T17:22:46.712Z,54.86
2022-10-05T17:25:37.376Z,55.24
2022-10-05T17:28:24.667Z,55.33
2022-10-05T17:31:21.885Z,55.37
2022-10-05T17:34:07.231Z,55.36
2022-10-05T17:36:54.389Z,55.46
2022-10-05T17:39:51.690Z,55.74
2022-10-05T17:42:29.219Z,55.74
2022-10-05T17:45:14.090Z,56.00
2022-10-05T17:48:06.427Z,56.15
2022-10-05T17:51:05.458Z,56.70
2022-10-05T17:54:03.325Z,56.45
2022-10-05T17:56:31.756Z,57.12
2022-10-05T17:58:59.880Z,57.45
2022-10-05T18:01:30.830Z,57.47
2022-10-05T18:04:35.236Z,57.74
2022-10-05T18:07:24.111Z,57.89
2022-10-05T18:09:57.831Z,58.09
2022-10-05T18:12:37.889Z,57.98
2022-10-05T18:15:07.886Z,58.07
2022-10-05T18:17:37.159Z,57.91
2022-10-05T18:20:32.314Z,57.66
2022-10-05T18:23:09.869Z,57.92
2022-10-05T18:26:02.470Z,58.35
2022-10-05T18:29:14.230Z,58.66
2022-10-05T18:32:01.789Z,58.91
2022-10-05T18:34:39.888Z,58.36
2022-10-05T18:37:14.938Z,58.92
2022-10-05T18:40:18.988Z,58.91
2022-10-05T18:43:00.529Z,58.87
2022-10-05T18:45:56.548Z,58.51
2022-10-05T18:48:54.366Z,57.90
2022-10-05T18:51:39.968Z,58.97
2022-10-05T18:54:13.888Z,59.84
2022-10-05T18:56:49.368Z,59.75
2022-10-05T18:59:29.569Z,59.65
2022-10-05T19:02:11.197Z,59.83
2022-10-05T19:04:56.931Z,60.28
2022-10-05T19:07:40.920Z,59.99
2022-10-05T19:10:19.729Z,60.38
2022-10-05T19:13:05.258Z,60.03
2022-10-05T19:15:47.751Z,60.05
2022-10-05T19:18:38.908Z,60.02
2022-10-05T19:21:33.279Z,59.83
2022-10-05T19:24:31.453Z,60.15
2022-10-05T19:27:01.189Z,59.98
2022-10-05T19:29:34.530Z,59.92
2022-10-05T19:32:33.948Z,59.62
2022-10-05T19:35:13.438Z,59.81
2022-10-05T19:37:49.450Z,59.62
2022-10-05T19:40:38.868Z,59.40
2022-10-05T19:43:37.252Z,59.97
2022-10-05T19:46:31.945Z,59.82
2022-10-05T19:49:00.459Z,59.52
2022-10-05T19:51:31.224Z,59.57
2022-10-05T19:54:02.393Z,59.34
2022-10-05T19:56:33.730Z,59.76
2022-10-05T19:59:13.520Z,59.39
2022-10-05T20:01:48.028Z,59.26
2022-10-05T20:04:33.279Z,59.32
2022-10-05T20:07:02.529Z,60.25
2022-10-05T20:09:29.928Z,60.08
2022-10-05T20:11:57.109Z,59.99
2022-10-05T20:14:32.278Z,60.05
2022-10-05T20:17:44.478Z,60.30
2022-10-05T20:20:38.428Z,60.34
2022-10-05T20:23:25.143Z,60.51
2022-10-05T20:26:11.450Z,60.87
2022-10-05T20:28:39.141Z,60.83
2022-10-05T20:31:10.392Z,60.77
2022-10-05T20:33:37.496Z,60.88
2022-10-05T20:36:04.656Z,60.99
2022-10-05T20:38:31.962Z,61.19
2022-10-05T20:40:59.239Z,61.02
2022-10-05T20:43:26.206Z,60.91
2022-10-05T20:45:53.958Z,61.30
2022-10-05T20:48:21.017Z,60.87
2022-10-05T20:50:48.001Z,61.01
2022-10-05T20:53:15.199Z,61.00
2022-10-05T20:55:43.281Z,61.41
2022-10-05T20:58:11.279Z,61.29
2022-10-05T21:00:57.158Z,61.74
2022-10-05T21:03:24.229Z,61.63
2022-10-05T21:05:51.168Z,61.60
2022-10-05T21:08:18.244Z,61.43
2022-10-05T21:10:45.130Z,61.55
2022-10-05T21:13:12.090Z,61.38
2022-10-05T21:15:39.058Z,61.67
2022-10-05T21:18:06.091Z,61.78
2022-10-05T21:20:33.280Z,61.71
2022-10-05T21:23:00.289Z,61.60
2022-10-05T21:25:27.269Z,61.73
2022-10-05T21:27:54.371Z,61.83
2022-10-05T21:30:22.120Z,62.17
2022-10-05T21:32:50.295Z,62.01
2022-10-05T21:35:17.322Z,62.18
2022-10-05T21:37:49.023Z,62.26
2022-10-05T21:40:17.031Z,62.81
2022-10-05T21:42:43.968Z,62.49
2022-10-05T21:45:11.149Z,62.96
2022-10-05T21:47:38.160Z,62.75
2022-10-05T21:50:06.412Z,62.92
2022-10-05T21:52:34.128Z,63.25
2022-10-05T21:55:02.509Z,63.06
2022-10-05T21:57:29.548Z,63.42
2022-10-05T21:59:56.659Z,63.49
2022-10-05T22:02:23.549Z,63.52
2022-10-05T22:04:50.488Z,63.23
2022-10-05T22:07:19.789Z,63.43
2022-10-05T22:09:50.508Z,63.40
2022-10-05T22:12:20.064Z,63.54
2022-10-05T22:14:47.838Z,63.46
2022-10-05T22:17:20.927Z,63.51
2022-10-05T22:19:47.870Z,63.51
2022-10-05T22:22:14.817Z,63.53
2022-10-05T22:25:28.422Z,63.34
2022-10-05T22:27:36.348Z,63.47
2022-10-05T22:30:04.424Z,63.40
2022-10-05T22:32:31.647Z,63.41
2022-10-05T22:34:58.665Z,63.67
2022-10-05T22:37:25.932Z,63.81
2022-10-05T22:39:55.291Z,63.99
2022-10-05T22:42:22.266Z,63.84
2022-10-05T22:44:49.389Z,63.87
2022-10-05T22:47:16.286Z,63.84
2022-10-05T22:49:43.228Z,63.71
2022-10-05T22:52:10.241Z,63.46
2022-10-05T22:54:37.516Z,63.32
2022-10-05T22:57:04.587Z,62.67
2022-10-05T22:59:31.727Z,63.52
2022-10-05T23:01:58.954Z,63.30
2022-10-05T23:04:26.209Z,63.11
2022-10-05T23:06:53.206Z,63.56
2022-10-05T23:09:20.266Z,63.56
2022-10-05T23:11:52.143Z,63.65
2022-10-05T23:14:19.845Z,63.53
2022-10-05T23:16:47.842Z,63.95
2022-10-05T23:19:14.886Z,63.65
2022-10-05T23:21:41.946Z,64.06
2022-10-05T23:24:08.985Z,64.07
2022-10-05T23:26:36.026Z,64.63
2022-10-05T23:29:03.245Z,64.61
2022-10-05T23:31:32.165Z,64.82
2022-10-05T23:33:59.628Z,64.23
2022-10-05T23:36:31.590Z,64.55
2022-10-05T23:38:59.225Z,64.75
2022-10-05T23:41:26.366Z,64.77
2022-10-05T23:43:55.435Z,64.54
2022-10-05T23:46:22.843Z,64.62
2022-10-05T23:48:50.545Z,65.09
2022-10-05T23:51:17.728Z,64.73
2022-10-05T23:53:45.196Z,64.68
2022-10-05T23:56:12.494Z,64.86
2022-10-05T23:58:40.209Z,64.46
